KNEL/NEL METAR and TAF weather

Enter ICAO airport designator
Station Type Date Time Source
KNEL METAR 2024/06/13 23:00 UTC NOAA

KNEL 132300Z AUTO 19014G20KT CLR 27/16 A2996 RMK AO2 SLP143 T02720156 $


Station Type Date Time Source
KNEL Decoded METAR 2024/06/13 23:00 UTC NOAA

Lakehurst Naval Air Station, NJ, United States (KNEL) 40-02N 074-19W 24M
Jun 13, 2024 - 07:00 PM EDT / 2024.06.13 2300 UTC
Wind: from the S (190 degrees) at 16 MPH (14 KT) gusting to 23 MPH (20 KT):0
Sky conditions: clear
Temperature: 81.0 F (27.2 C)
Dew Point: 60.1 F (15.6 C)
Relative Humidity: 49%
Pressure (altimeter): 29.96 in. Hg (1014 hPa)
ob: KNEL 132300Z AUTO 19014G20KT CLR 27/16 A2996 RMK AO2 SLP143 T02720156
cycle: 23

Station Type Date Time Source
KNEL TAF UTC NOAA

Error!

Example: see airport list